KCIC/CIC METAR and TAF weather

Enter ICAO airport designator
Station Type Date Time Source
KCIC METAR 2022/01/25 04:35 UTC NOAA

KCIC 250435Z AUTO 06004KT 10SM CLR 09/04 A3009 RMK AO1


Station Type Date Time Source
KCIC Decoded METAR 2022/01/25 04:35 UTC NOAA

Chico Municipal , CA, United States (KCIC) 39-48N 121-51W
Jan 24, 2022 - 11:35 PM EST / 2022.01.25 0435 UTC
Wind: from the ENE (060 degrees) at 5 MPH (4 KT):0
Visibility: 10 mile(s):0
Sky conditions: clear
Temperature: 48 F (9 C)
Dew Point: 39 F (4 C)
Relative Humidity: 70%
Pressure (altimeter): 30.09 in. Hg (1018 hPa)
ob: KCIC 250435Z AUTO 06004KT 10SM CLR 09/04 A3009 RMK AO1
cycle: 4

Station Type Date Time Source
KCIC TAF UTC NOAA

Error!

Example: see airport list